Time;durP1;ratioP1;P1;durP2;ratioP2;P2;SDS_P1;SDS_P2;PMS_P1;PMS_P2;Temp;Humidity;BMP_temperature;BMP_pressure;BME280_temperature;BME280_humidity;BME280_pressure;Samples;Min_cycle;Max_cycle;Signal;HPM_P1;HPM_P2
2022/04/09 00:00:21;;;;;;;3.05;2.47;;;1.80;99.90;;;;;;5053354;28;20017;-63
2022/04/09 00:02:46;;;;;;;4.60;2.42;;;1.70;99.90;;;;;;5053340;28;20032;-62
2022/04/09 00:05:13;;;;;;;3.40;2.40;;;1.80;99.90;;;;;;5053663;28;20383;-62
2022/04/09 00:07:39;;;;;;;3.42;2.10;;;1.80;99.90;;;;;;5053399;28;20035;-63
2022/04/09 00:10:07;;;;;;;6.15;3.85;;;1.80;99.90;;;;;;5053396;28;20082;-63
2022/04/09 00:12:33;;;;;;;6.10;3.45;;;1.80;99.90;;;;;;5035229;28;20082;-63
2022/04/09 00:14:58;;;;;;;5.72;3.13;;;1.80;99.90;;;;;;5053918;28;20426;-64
2022/04/09 00:17:24;;;;;;;3.53;2.30;;;2.00;99.90;;;;;;5035362;28;20033;-63
2022/04/09 00:19:50;;;;;;;3.30;2.30;;;2.00;99.90;;;;;;5053435;28;20435;-63
2022/04/09 00:22:16;;;;;;;3.17;2.50;;;2.00;99.90;;;;;;5053041;28;20031;-63
2022/04/09 00:24:41;;;;;;;3.90;2.10;;;2.40;99.90;;;;;;5053209;28;20027;-63
2022/04/09 00:27:07;;;;;;;4.77;2.43;;;2.30;99.90;;;;;;5052989;28;20032;-62
2022/04/09 00:29:32;;;;;;;5.50;2.30;;;2.20;99.90;;;;;;5053224;28;20441;-64
2022/04/09 00:31:58;;;;;;;4.70;2.20;;;2.20;99.90;;;;;;5052573;28;20039;-63
2022/04/09 00:34:24;;;;;;;3.00;2.10;;;2.20;99.90;;;;;;5052804;28;20399;-63
2022/04/09 00:36:49;;;;;;;4.77;3.10;;;2.20;99.90;;;;;;5052660;28;20025;-63
2022/04/09 00:39:15;;;;;;;3.90;2.00;;;2.20;99.90;;;;;;5052877;28;20036;-63
2022/04/09 00:41:41;;;;;;;2.70;1.97;;;2.20;99.90;;;;;;5053071;28;20106;-61
2022/04/09 00:44:20;;;;;;;2.45;1.92;;;2.20;99.90;;;;;;5052726;28;20055;-61
2022/04/09 00:46:46;;;;;;;3.03;1.80;;;2.30;99.90;;;;;;5052890;28;20108;-62
2022/04/09 00:49:13;;;;;;;3.25;2.08;;;2.30;99.90;;;;;;5052790;28;20110;-61
2022/04/09 00:51:44;;;;;;;3.88;2.20;;;2.30;99.90;;;;;;5052662;28;20044;-60
2022/04/09 00:54:12;;;;;;;3.30;2.70;;;2.30;99.90;;;;;;5053178;28;20087;-61
2022/04/09 00:56:39;;;;;;;3.40;2.17;;;2.10;99.90;;;;;;5052772;28;20056;-62
2022/04/09 00:59:11;;;;;;;3.70;2.53;;;2.10;99.90;;;;;;5053310;28;20029;-62
2022/04/09 01:01:39;;;;;;;2.70;1.65;;;2.10;99.90;;;;;;5054301;28;20375;-62
2022/04/09 01:04:10;;;;;;;4.78;2.60;;;2.10;99.90;;;;;;5053712;28;20513;-61
2022/04/09 01:06:37;;;;;;;10.20;4.93;;;2.20;99.90;;;;;;5052898;28;20025;-62
2022/04/09 01:09:03;;;;;;;;;;;2.10;99.90;;;;;;5053229;28;20032;-61
2022/04/09 01:11:28;;;;;;;3.03;2.13;;;2.00;99.90;;;;;;5034855;28;20321;-62
2022/04/09 01:13:54;;;;;;;1.67;1.40;;;1.90;99.90;;;;;;5053042;28;20021;-61
2022/04/09 01:16:20;;;;;;;8.60;5.43;;;2.10;99.90;;;;;;5052972;28;20036;-62
2022/04/09 01:18:46;;;;;;;3.60;2.60;;;1.90;99.90;;;;;;5052699;28;20022;-61
2022/04/09 01:21:11;;;;;;;6.00;3.20;;;1.90;99.90;;;;;;5052904;28;20025;-62
2022/04/09 01:23:37;;;;;;;2.83;2.07;;;2.00;99.90;;;;;;5052959;28;20380;-63
2022/04/09 01:26:05;;;;;;;2.58;2.10;;;2.20;99.90;;;;;;5052368;28;20486;-62
2022/04/09 01:28:32;;;;;;;3.50;2.63;;;2.20;99.90;;;;;;5052235;28;20108;-61
2022/04/09 01:30:57;;;;;;;4.88;3.15;;;2.20;99.90;;;;;;5034474;28;20025;-61
2022/04/09 01:33:23;;;;;;;2.77;2.33;;;2.00;99.90;;;;;;5052245;28;20032;-61
2022/04/09 01:35:50;;;;;;;3.08;2.08;;;1.90;99.90;;;;;;5034431;28;20028;-62
2022/04/09 01:38:16;;;;;;;;;;;2.00;99.90;;;;;;5052714;28;20035;-62
2022/04/09 01:40:42;;;;;;;2.88;2.10;;;1.90;99.90;;;;;;5052336;28;19999;-62
2022/04/09 01:43:08;;;;;;;2.22;1.73;;;2.00;99.90;;;;;;5053629;28;20527;-63
2022/04/09 01:45:34;;;;;;;2.80;2.15;;;2.00;99.90;;;;;;5056822;28;20060;-62
2022/04/09 01:48:00;;;;;;;3.30;2.20;;;1.90;99.90;;;;;;5056979;28;20078;-62
2022/04/09 01:50:26;;;;;;;4.00;2.70;;;1.80;99.90;;;;;;5056386;28;20025;-63
2022/04/09 01:52:55;;;;;;;4.28;3.03;;;1.80;99.90;;;;;;5056371;28;20025;-60
2022/04/09 01:55:21;;;;;;;4.88;2.95;;;1.80;99.90;;;;;;5056282;28;20108;-62
2022/04/09 01:57:48;;;;;;;5.65;3.00;;;2.00;99.90;;;;;;5038548;28;20033;-64
2022/04/09 02:00:15;;;;;;;5.95;3.25;;;2.00;99.90;;;;;;5056055;28;20043;-63
2022/04/09 02:02:41;;;;;;;4.93;3.17;;;1.90;99.90;;;;;;5038441;28;20029;-63
2022/04/09 02:05:08;;;;;;;5.10;3.35;;;1.90;99.90;;;;;;5056270;28;20021;-62
2022/04/09 02:07:35;;;;;;;5.85;3.50;;;1.90;99.90;;;;;;5056155;28;20025;-64
2022/04/09 02:10:02;;;;;;;5.13;3.05;;;1.80;99.90;;;;;;5056621;28;20022;-65
2022/04/09 02:12:30;;;;;;;;;;;1.90;99.90;;;;;;5057268;28;20174;-63
2022/04/09 02:14:56;;;;;;;3.78;2.78;;;2.00;99.90;;;;;;5055951;28;19912;-62
2022/04/09 02:17:21;;;;;;;3.90;2.37;;;2.00;99.90;;;;;;5057565;28;20028;-64
2022/04/09 02:19:47;;;;;;;3.97;2.37;;;1.90;99.90;;;;;;5057920;28;20120;-62
2022/04/09 02:22:12;;;;;;;3.23;2.30;;;2.00;99.90;;;;;;5057187;28;20499;-62
2022/04/09 02:24:39;;;;;;;3.33;2.40;;;2.00;99.90;;;;;;5056508;28;20033;-62
2022/04/09 02:27:06;;;;;;;4.22;2.13;;;1.90;99.90;;;;;;5055954;28;20391;-64
2022/04/09 02:29:32;;;;;;;4.47;2.47;;;1.90;99.90;;;;;;5056178;28;20020;-62
2022/04/09 02:31:58;;;;;;;3.63;2.40;;;2.00;99.90;;;;;;5055515;28;20086;-60
2022/04/09 02:34:24;;;;;;;4.90;2.60;;;2.00;99.90;;;;;;5055390;28;20021;-63
2022/04/09 02:36:50;;;;;;;4.53;2.60;;;2.00;99.90;;;;;;5037100;28;20033;-62
2022/04/09 02:39:19;;;;;;;4.27;2.83;;;2.00;99.90;;;;;;5037373;28;20032;-62
2022/04/09 02:41:44;;;;;;;4.20;2.90;;;1.90;99.90;;;;;;5054799;28;20107;-63
2022/04/09 02:44:10;;;;;;;5.23;3.10;;;1.90;99.90;;;;;;5055190;28;20099;-64
2022/04/09 02:46:35;;;;;;;4.73;3.03;;;1.90;99.90;;;;;;5054684;28;20025;-62
2022/04/09 02:49:02;;;;;;;5.10;3.43;;;1.90;99.90;;;;;;5055095;28;20039;-62
2022/04/09 02:51:27;;;;;;;4.80;3.35;;;1.90;99.90;;;;;;5054947;28;20379;-61
2022/04/09 02:53:53;;;;;;;5.57;3.60;;;1.80;99.90;;;;;;5054573;28;20036;-61
2022/04/09 02:56:19;;;;;;;7.67;4.50;;;1.80;99.90;;;;;;5053796;28;20029;-61
2022/04/09 02:58:44;;;;;;;4.95;3.35;;;1.80;99.90;;;;;;5054689;28;20028;-61
2022/04/09 03:01:10;;;;;;;6.50;3.97;;;1.80;99.90;;;;;;5054346;28;20054;-61
2022/04/09 03:03:36;;;;;;;7.05;4.03;;;1.80;99.90;;;;;;5054691;28;20395;-62
2022/04/09 03:06:01;;;;;;;7.93;4.00;;;1.90;99.90;;;;;;5054457;28;20021;-61
2022/04/09 03:08:28;;;;;;;6.77;3.90;;;1.90;99.90;;;;;;5054455;28;20017;-62
2022/04/09 03:10:53;;;;;;;6.35;4.18;;;1.90;99.90;;;;;;5055130;28;20017;-62
2022/04/09 03:13:19;;;;;;;7.22;4.30;;;1.90;99.90;;;;;;5054454;28;20503;-61
2022/04/09 03:15:45;;;;;;;6.70;4.63;;;2.00;99.90;;;;;;5036163;28;20021;-62
2022/04/09 03:18:10;;;;;;;6.07;3.90;;;2.00;99.90;;;;;;5036003;28;20310;-61
2022/04/09 03:20:38;;;;;;;6.73;4.70;;;2.00;99.90;;;;;;5053923;28;20013;-61
2022/04/09 03:23:03;;;;;;;7.00;4.47;;;2.00;99.90;;;;;;5054008;28;20259;-61
2022/04/09 03:25:29;;;;;;;7.40;4.47;;;2.00;99.90;;;;;;5054157;28;20103;-61
2022/04/09 03:27:54;;;;;;;6.67;4.30;;;2.00;99.90;;;;;;5053795;28;20025;-61
2022/04/09 03:30:20;;;;;;;10.87;5.60;;;2.20;99.90;;;;;;5053965;28;20369;-62
2022/04/09 03:32:46;;;;;;;8.47;5.23;;;2.20;99.90;;;;;;5053557;28;20024;-62
2022/04/09 03:35:12;;;;;;;9.27;5.50;;;2.20;99.90;;;;;;5053577;28;20105;-61
2022/04/09 03:37:38;;;;;;;9.40;5.63;;;2.10;99.90;;;;;;5053782;28;20051;-62
2022/04/09 03:40:05;;;;;;;8.88;5.43;;;2.10;99.90;;;;;;5053449;28;20033;-62
2022/04/09 03:42:31;;;;;;;8.43;5.22;;;2.10;99.90;;;;;;5053724;28;20033;-61
2022/04/09 03:44:57;;;;;;;12.68;7.07;;;2.10;99.90;;;;;;5053644;28;20515;-61
2022/04/09 03:47:23;;;;;;;10.00;6.13;;;2.10;99.90;;;;;;5053682;28;20107;-61
2022/04/09 03:49:49;;;;;;;10.70;6.63;;;2.10;99.90;;;;;;5054327;28;20039;-62
2022/04/09 03:52:14;;;;;;;12.77;7.18;;;2.10;99.90;;;;;;5053411;28;20036;-62
2022/04/09 03:54:40;;;;;;;9.63;6.40;;;2.10;99.90;;;;;;5053514;28;20025;-62
2022/04/09 03:57:06;;;;;;;9.67;6.33;;;2.10;99.90;;;;;;5055395;28;20029;-62
2022/04/09 03:59:32;;;;;;;13.77;7.25;;;2.10;99.90;;;;;;5056624;28;20024;-61
2022/04/09 04:01:57;;;;;;;10.68;7.18;;;2.00;99.90;;;;;;5038025;28;20025;-63
2022/04/09 04:04:23;;;;;;;11.57;7.20;;;2.10;99.90;;;;;;5037739;28;20032;-62
2022/04/09 04:06:49;;;;;;;11.93;7.35;;;2.10;99.90;;;;;;5053569;28;20401;-62
2022/04/09 04:09:16;;;;;;;12.17;7.27;;;2.10;99.90;;;;;;5053611;28;20067;-62
2022/04/09 04:11:45;;;;;;;11.82;7.00;;;2.10;99.90;;;;;;5053030;28;20278;-62
2022/04/09 04:14:12;;;;;;;15.15;8.25;;;2.20;99.90;;;;;;5053731;28;20075;-62
2022/04/09 04:16:38;;;;;;;13.18;8.13;;;2.20;99.90;;;;;;5053487;28;20125;-62
2022/04/09 04:19:04;;;;;;;12.88;7.57;;;2.20;99.90;;;;;;5053313;28;20060;-62
2022/04/09 04:21:30;;;;;;;17.73;9.10;;;2.20;99.90;;;;;;5035056;28;20048;-62
2022/04/09 04:23:55;;;;;;;13.17;8.10;;;2.10;99.90;;;;;;5053236;28;20521;-62
2022/04/09 04:26:21;;;;;;;14.07;8.13;;;2.00;99.90;;;;;;5052930;28;20091;-61
2022/04/09 04:28:48;;;;;;;16.23;8.00;;;2.10;99.90;;;;;;5035271;28;20029;-62
2022/04/09 04:31:17;;;;;;;13.63;7.95;;;2.00;99.90;;;;;;5053271;28;20669;-61
2022/04/09 04:33:43;;;;;;;14.35;8.73;;;2.10;99.90;;;;;;5053219;28;20054;-62
2022/04/09 04:36:09;;;;;;;15.00;8.07;;;2.10;99.90;;;;;;5035401;28;20036;-62
2022/04/09 04:38:34;;;;;;;15.67;8.97;;;2.20;99.90;;;;;;5053405;28;20024;-62
2022/04/09 04:41:01;;;;;;;15.90;9.03;;;2.10;99.90;;;;;;5053051;28;20251;-62
2022/04/09 04:43:26;;;;;;;16.25;9.35;;;2.10;99.90;;;;;;5053477;28;20036;-64
2022/04/09 04:45:52;;;;;;;18.17;9.23;;;2.10;99.90;;;;;;5053672;28;20387;-64
2022/04/09 04:48:20;;;;;;;25.83;11.60;;;2.10;99.90;;;;;;5053656;28;20071;-64
2022/04/09 04:50:46;;;;;;;16.48;9.95;;;2.10;99.90;;;;;;5056492;28;20025;-64
2022/04/09 04:53:12;;;;;;;19.30;11.37;;;2.10;99.90;;;;;;5056993;28;20163;-64
2022/04/09 04:55:37;;;;;;;21.17;10.25;;;2.10;99.90;;;;;;5056230;28;20272;-64
2022/04/09 04:58:03;;;;;;;20.53;10.83;;;2.20;99.90;;;;;;5056730;28;20060;-64
2022/04/09 05:00:29;;;;;;;19.83;10.77;;;2.20;99.90;;;;;;5055666;28;20021;-64
2022/04/09 05:02:55;;;;;;;19.63;10.37;;;2.20;99.90;;;;;;5037444;28;20021;-64
2022/04/09 05:05:21;;;;;;;20.42;11.52;;;2.10;99.90;;;;;;5055635;28;20260;-63
2022/04/09 05:07:49;;;;;;;19.80;11.25;;;2.30;99.90;;;;;;5055931;28;20495;-62
2022/04/09 05:10:16;;;;;;;22.00;11.77;;;2.30;99.90;;;;;;5054070;28;20033;-62
2022/04/09 05:12:42;;;;;;;21.42;12.57;;;2.30;99.90;;;;;;5053858;28;20029;-64
2022/04/09 05:15:10;;;;;;;22.35;12.13;;;2.30;99.90;;;;;;5053809;28;20029;-63
2022/04/09 05:17:36;;;;;;;21.92;12.35;;;2.30;99.90;;;;;;5037270;28;20100;-63
2022/04/09 05:20:04;;;;;;;26.03;12.93;;;2.40;99.90;;;;;;5059294;28;20060;-63
2022/04/09 05:22:30;;;;;;;23.13;12.43;;;2.40;99.90;;;;;;5058639;28;20075;-64
2022/04/09 05:24:56;;;;;;;;;;;2.40;99.90;;;;;;5058966;28;20049;-63
2022/04/09 05:27:22;;;;;;;24.95;12.98;;;2.30;99.90;;;;;;5057805;28;19912;-64
2022/04/09 05:29:48;;;;;;;27.92;13.98;;;2.30;99.90;;;;;;5057179;28;20032;-64
2022/04/09 05:32:14;;;;;;;26.57;14.63;;;2.30;99.90;;;;;;5057784;28;20033;-64
2022/04/09 05:34:39;;;;;;;26.48;13.55;;;2.30;99.90;;;;;;5057714;28;20049;-63
2022/04/09 05:37:05;;;;;;;23.17;13.17;;;2.30;99.90;;;;;;5057552;28;20055;-63
2022/04/09 05:39:31;;;;;;;28.75;13.70;;;2.30;99.90;;;;;;5039985;28;20021;-64
2022/04/09 05:41:57;;;;;;;26.65;13.43;;;2.30;99.90;;;;;;5057732;28;20037;-64
2022/04/09 05:44:22;;;;;;;28.10;14.80;;;2.30;99.90;;;;;;5057659;28;20047;-64
2022/04/09 05:46:48;;;;;;;26.83;13.97;;;2.40;99.90;;;;;;5058850;28;20387;-68
2022/04/09 05:49:14;;;;;;;26.90;14.47;;;2.40;99.90;;;;;;5057063;28;20109;-65
2022/04/09 05:51:39;;;;;;;26.13;14.27;;;2.40;99.90;;;;;;5058068;28;20036;-68
2022/04/09 05:54:05;;;;;;;29.97;15.07;;;2.40;99.90;;;;;;5056626;28;20037;-64
2022/04/09 05:56:31;;;;;;;26.38;13.90;;;2.40;99.90;;;;;;5056144;28;20025;-65
2022/04/09 05:58:56;;;;;;;26.70;14.70;;;2.50;99.90;;;;;;5037965;28;20502;-64
2022/04/09 06:01:22;;;;;;;31.23;15.93;;;2.50;99.90;;;;;;5056002;28;20025;-64
2022/04/09 06:03:48;;;;;;;28.02;15.13;;;2.60;99.90;;;;;;5055780;28;20045;-63
2022/04/09 06:06:13;;;;;;;27.27;14.70;;;2.60;99.90;;;;;;5038274;28;20029;-63
2022/04/09 06:08:39;;;;;;;28.83;15.13;;;2.60;99.90;;;;;;5055742;28;20084;-62
2022/04/09 06:11:05;;;;;;;27.87;14.93;;;2.70;99.90;;;;;;5038967;28;20021;-62
2022/04/09 06:13:31;;;;;;;30.75;14.63;;;2.70;99.90;;;;;;5055612;28;20071;-62
2022/04/09 06:15:57;;;;;;;26.45;14.32;;;2.80;99.90;;;;;;5055702;28;20104;-64
2022/04/09 06:18:23;;;;;;;27.42;14.07;;;2.90;99.90;;;;;;5055199;28;20188;-62
2022/04/09 06:20:48;;;;;;;26.43;14.63;;;2.90;99.90;;;;;;5055419;28;20025;-62
2022/04/09 06:23:14;;;;;;;29.63;15.20;;;3.00;99.90;;;;;;5055166;28;20391;-62
2022/04/09 06:25:39;;;;;;;27.13;14.77;;;3.00;99.90;;;;;;5055586;28;20029;-63
2022/04/09 06:28:05;;;;;;;32.73;16.17;;;3.00;99.90;;;;;;5055117;28;20036;-63
2022/04/09 06:30:31;;;;;;;28.55;14.73;;;2.90;99.90;;;;;;5054153;28;20025;-62
2022/04/09 06:32:56;;;;;;;32.57;15.33;;;2.90;99.90;;;;;;5055546;28;20479;-64
2022/04/09 06:35:24;;;;;;;33.30;15.70;;;3.00;99.90;;;;;;5055499;28;20032;-61
2022/04/09 06:37:50;;;;;;;37.47;17.13;;;2.90;99.90;;;;;;5054766;28;20057;-61
2022/04/09 06:40:16;;;;;;;30.83;15.97;;;3.00;99.90;;;;;;5055019;28;20071;-61
2022/04/09 06:42:42;;;;;;;33.87;16.50;;;3.00;99.90;;;;;;5055344;28;20041;-67
2022/04/09 06:45:08;;;;;;;45.75;16.25;;;3.00;99.90;;;;;;5056238;28;20397;-70
2022/04/09 06:47:38;;;;;;;;;;;3.00;99.90;;;;;;5055482;28;20182;-68
2022/04/09 06:50:12;;;;;;;32.25;17.10;;;3.00;99.90;;;;;;5055450;28;19912;-68
2022/04/09 06:52:38;;;;;;;29.58;17.80;;;3.10;99.90;;;;;;5036558;28;20179;-68
2022/04/09 06:55:05;;;;;;;33.20;17.48;;;3.10;99.90;;;;;;5054795;28;20032;-68
2022/04/09 06:57:32;;;;;;;32.90;17.40;;;3.20;99.90;;;;;;5036783;28;20025;-68
2022/04/09 06:59:59;;;;;;;33.83;17.77;;;3.20;99.90;;;;;;5037279;28;20022;-69
2022/04/09 07:02:25;;;;;;;32.47;17.45;;;3.20;99.90;;;;;;5055602;28;20049;-64
2022/04/09 07:04:51;;;;;;;33.87;17.07;;;3.20;99.90;;;;;;5056314;28;20389;-64
2022/04/09 07:07:24;;;;;;;32.38;17.35;;;3.30;99.90;;;;;;5054603;28;20029;-64
2022/04/09 07:09:49;;;;;;;33.92;18.58;;;3.30;99.90;;;;;;5054319;28;20082;-64
2022/04/09 07:12:16;;;;;;;32.10;17.53;;;3.40;99.90;;;;;;5054318;28;20430;-64
2022/04/09 07:14:42;;;;;;;33.25;17.88;;;3.50;99.90;;;;;;5054994;28;20259;-67
2022/04/09 07:17:08;;;;;;;31.80;17.42;;;3.60;99.90;;;;;;5054171;28;20090;-68
2022/04/09 07:19:34;;;;;;;31.52;17.20;;;3.70;99.90;;;;;;5036705;28;20029;-68
2022/04/09 07:22:00;;;;;;;35.72;17.38;;;3.80;99.90;;;;;;5054055;28;20021;-67
2022/04/09 07:24:26;;;;;;;36.50;17.88;;;3.90;99.90;;;;;;5054473;28;20474;-67
2022/04/09 07:26:51;;;;;;;31.02;15.80;;;3.90;99.90;;;;;;5036141;28;20025;-67
2022/04/09 07:29:17;;;;;;;30.63;15.30;;;4.00;99.90;;;;;;5054149;28;20487;-68
2022/04/09 07:31:43;;;;;;;27.73;16.57;;;4.10;99.90;;;;;;5053806;28;20028;-65
2022/04/09 07:34:10;;;;;;;28.10;15.53;;;4.20;99.90;;;;;;5054583;28;20049;-67
2022/04/09 07:36:35;;;;;;;26.20;16.42;;;4.30;99.90;;;;;;5054004;28;20025;-67
2022/04/09 07:39:01;;;;;;;32.50;17.10;;;4.40;99.90;;;;;;5053983;28;20025;-65
2022/04/09 07:41:26;;;;;;;29.03;16.77;;;4.50;99.90;;;;;;5053701;28;20075;-67
2022/04/09 07:43:52;;;;;;;32.17;17.67;;;4.50;99.90;;;;;;5054237;28;20069;-66
2022/04/09 07:46:18;;;;;;;26.50;15.20;;;4.50;99.90;;;;;;5036579;28;20557;-66
2022/04/09 07:48:43;;;;;;;30.67;16.80;;;4.50;99.90;;;;;;5053863;28;20031;-68
2022/04/09 07:51:09;;;;;;;27.00;16.13;;;4.50;99.90;;;;;;5053671;28;20104;-68
2022/04/09 07:53:35;;;;;;;29.10;15.67;;;4.50;99.90;;;;;;5053263;28;20283;-66
2022/04/09 07:56:00;;;;;;;25.87;15.57;;;4.50;99.90;;;;;;5053958;28;20048;-66
2022/04/09 07:58:26;;;;;;;27.20;15.27;;;4.50;99.90;;;;;;5054217;28;20114;-65
2022/04/09 08:00:51;;;;;;;26.43;14.63;;;4.40;99.90;;;;;;5053246;28;20095;-65
2022/04/09 08:03:17;;;;;;;26.00;15.77;;;4.40;99.90;;;;;;5053281;28;20036;-65
2022/04/09 08:05:43;;;;;;;28.37;15.63;;;4.30;99.90;;;;;;5053550;28;20440;-66
2022/04/09 08:08:10;;;;;;;30.52;15.45;;;4.30;99.90;;;;;;5053304;28;20159;-66
2022/04/09 08:10:39;;;;;;;;;;;4.40;99.90;;;;;;5053320;28;20025;-66
2022/04/09 08:13:05;;;;;;;26.33;15.27;;;4.50;99.90;;;;;;5052721;28;19904;-67
2022/04/09 08:15:31;;;;;;;25.90;14.20;;;4.60;99.90;;;;;;5052743;28;20027;-67
2022/04/09 08:17:57;;;;;;;22.48;12.50;;;4.70;99.90;;;;;;5052898;28;20388;-67
2022/04/09 08:20:23;;;;;;;24.42;13.82;;;4.90;99.90;;;;;;5052918;28;20021;-67
2022/04/09 08:22:50;;;;;;;24.55;11.98;;;5.10;99.90;;;;;;5052583;28;20025;-67
2022/04/09 08:25:16;;;;;;;20.63;12.35;;;5.20;99.90;;;;;;5035089;28;20017;-67
2022/04/09 08:27:43;;;;;;;20.88;12.02;;;5.30;99.90;;;;;;5053163;28;20033;-67
2022/04/09 08:30:10;;;;;;;21.17;12.15;;;5.40;99.90;;;;;;5053808;28;20083;-68
2022/04/09 08:32:36;;;;;;;19.67;11.20;;;5.60;99.90;;;;;;5054305;28;20103;-70
2022/04/09 08:35:03;;;;;;;17.00;10.75;;;5.70;99.90;;;;;;5035820;28;20436;-68
2022/04/09 08:37:29;;;;;;;21.15;10.70;;;5.80;99.90;;;;;;5053138;28;20056;-67
2022/04/09 08:39:55;;;;;;;14.80;9.95;;;6.30;99.90;;;;;;5035164;28;20076;-65
2022/04/09 08:42:21;;;;;;;16.25;9.38;;;7.00;99.90;;;;;;5052561;28;20033;-67
2022/04/09 08:44:48;;;;;;;17.73;9.57;;;7.50;99.90;;;;;;5052661;28;20097;-66
2022/04/09 08:47:15;;;;;;;16.58;9.00;;;7.70;99.90;;;;;;5053168;28;20425;-66
2022/04/09 08:49:47;;;;;;;15.10;8.38;;;7.90;99.90;;;;;;5053057;28;20028;-65
2022/04/09 08:52:14;;;;;;;14.25;8.35;;;9.10;99.90;;;;;;5052288;28;20486;-66
2022/04/09 08:54:43;;;;;;;10.35;6.40;;;10.60;99.90;;;;;;5052752;28;20036;-67
2022/04/09 08:57:10;;;;;;;9.07;6.80;;;11.90;99.90;;;;;;5052599;28;20048;-66
2022/04/09 08:59:36;;;;;;;11.90;5.68;;;13.20;99.90;;;;;;5052554;28;20447;-64
2022/04/09 09:02:02;;;;;;;12.25;5.80;;;14.50;99.50;;;;;;5052043;28;20136;-67
2022/04/09 09:04:28;;;;;;;10.88;5.75;;;15.50;97.30;;;;;;5052387;28;20037;-65
2022/04/09 09:06:53;;;;;;;14.27;6.10;;;14.70;95.80;;;;;;5050539;28;20084;-65
2022/04/09 09:09:32;;;;;;;11.10;6.17;;;13.70;97.30;;;;;;5051446;28;20474;-64
2022/04/09 09:12:00;;;;;;;10.50;5.80;;;12.70;99.90;;;;;;5052190;28;20032;-66
2022/04/09 09:14:33;;;;;;;13.55;6.13;;;12.00;99.90;;;;;;5052558;28;20395;-66
2022/04/09 09:16:59;;;;;;;11.40;5.10;;;11.40;99.90;;;;;;5052810;28;20078;-65
2022/04/09 09:19:45;;;;;;;11.18;5.05;;;12.30;99.90;;;;;;5052457;28;20033;-66
2022/04/09 09:22:11;;;;;;;13.38;4.45;;;13.80;97.90;;;;;;5052139;28;20337;-66
2022/04/09 09:24:37;;;;;;;10.30;5.43;;;15.60;94.00;;;;;;5052633;28;20096;-65
2022/04/09 09:27:04;;;;;;;9.57;4.93;;;17.10;90.20;;;;;;5052220;28;20033;-65
2022/04/09 09:29:31;;;;;;;9.15;4.10;;;19.00;84.40;;;;;;5052158;28;20025;-66
2022/04/09 09:32:01;;;;;;;12.73;5.00;;;20.60;73.60;;;;;;5052181;28;20442;-66
2022/04/09 09:34:28;;;;;;;8.90;3.85;;;20.70;70.80;;;;;;5052372;28;20083;-65
2022/04/09 09:36:54;;;;;;;7.50;3.78;;;21.40;68.40;;;;;;5052061;28;20037;-65
2022/04/09 09:39:20;;;;;;;;;;;20.30;68.00;;;;;;5052587;28;20029;-66
2022/04/09 09:41:56;;;;;;;10.98;4.82;;;18.50;70.50;;;;;;5051908;28;20382;-65
2022/04/09 09:44:24;;;;;;;10.35;4.63;;;17.20;75.50;;;;;;5052145;28;20468;-65
2022/04/09 09:46:52;;;;;;;9.77;3.90;;;17.10;76.10;;;;;;5052140;28;20108;-66
2022/04/09 09:49:20;;;;;;;11.52;6.05;;;16.80;74.80;;;;;;5052041;28;20025;-66
2022/04/09 09:52:03;;;;;;;11.30;4.03;;;17.00;75.90;;;;;;5051457;28;20040;-66
2022/04/09 09:54:28;;;;;;;8.38;3.30;;;17.80;73.80;;;;;;5051973;28;20021;-66
2022/04/09 09:56:55;;;;;;;7.68;3.17;;;17.60;73.20;;;;;;5034206;28;20124;-64
2022/04/09 09:59:23;;;;;;;9.93;3.75;;;15.80;77.00;;;;;;5052139;28;20049;-64
2022/04/09 10:01:49;;;;;;;8.68;3.42;;;14.20;84.20;;;;;;5052917;28;20316;-64
2022/04/09 10:04:14;;;;;;;10.77;3.92;;;14.30;88.60;;;;;;5056462;28;20159;-64
2022/04/09 10:06:42;;;;;;;7.43;3.83;;;14.70;85.90;;;;;;5058502;28;20541;-65
2022/04/09 10:09:09;;;;;;;16.95;3.97;;;14.00;87.60;;;;;;5058783;28;20456;-64
2022/04/09 10:11:39;;;;;;;10.02;3.03;;;13.30;90.40;;;;;;5056366;28;20033;-64
2022/04/09 10:14:05;;;;;;;8.25;3.50;;;12.20;92.00;;;;;;5055663;28;20032;-64
2022/04/09 10:16:34;;;;;;;6.90;3.50;;;11.80;93.70;;;;;;5055340;28;20535;-63
2022/04/09 10:19:01;;;;;;;11.90;4.40;;;11.50;94.60;;;;;;5055221;28;20017;-64
2022/04/09 10:21:33;;;;;;;12.43;3.53;;;11.20;96.90;;;;;;5055524;28;20464;-64
2022/04/09 10:24:02;;;;;;;9.48;3.90;;;10.70;97.80;;;;;;5055136;28;20025;-64
2022/04/09 10:26:28;;;;;;;10.30;3.70;;;10.80;98.70;;;;;;5055084;28;20424;-63
2022/04/09 10:29:08;;;;;;;11.25;3.45;;;10.70;98.20;;;;;;5055552;28;20074;-64
2022/04/09 10:31:37;;;;;;;11.77;3.20;;;10.20;98.60;;;;;;5055425;28;20044;-65
2022/04/09 10:34:05;;;;;;;9.82;3.97;;;9.60;99.90;;;;;;5055848;28;20017;-65
2022/04/09 10:36:45;;;;;;;14.25;3.90;;;9.20;99.90;;;;;;5055741;28;20100;-64
2022/04/09 10:39:22;;;;;;;11.60;3.30;;;9.00;99.90;;;;;;5057190;28;20079;-64
2022/04/09 10:41:49;;;;;;;12.60;3.53;;;10.40;99.90;;;;;;5056625;28;20073;-64
2022/04/09 10:44:44;;;;;;;12.63;3.03;;;10.90;99.90;;;;;;5055428;28;20040;-64
2022/04/09 10:47:13;;;;;;;6.82;3.08;;;11.60;99.60;;;;;;5055470;28;20460;-64
2022/04/09 10:49:38;;;;;;;6.60;2.72;;;12.10;96.10;;;;;;5055012;28;20116;-64
2022/04/09 10:52:19;;;;;;;12.37;5.40;;;11.60;96.30;;;;;;5054654;28;20104;-63
2022/04/09 10:55:10;;;;;;;11.10;3.50;;;11.00;98.50;;;;;;5036768;28;20025;-64
2022/04/09 10:57:49;;;;;;;8.75;2.75;;;10.50;99.90;;;;;;5054771;28;20047;-64
2022/04/09 11:00:23;;;;;;;7.47;2.38;;;13.00;97.30;;;;;;5054724;28;20013;-65
2022/04/09 11:03:11;;;;;;;12.65;3.08;;;15.40;91.20;;;;;;5036589;28;20021;-64
2022/04/09 11:05:39;;;;;;;;;;;17.10;83.50;;;;;;5054812;28;20028;-64
2022/04/09 11:08:06;;;;;;;13.07;2.50;;;17.20;76.60;;;;;;5054474;28;19968;-64
2022/04/09 11:10:31;;;;;;;9.32;2.60;;;16.80;75.60;;;;;;5054388;28;20491;-64
2022/04/09 11:12:57;;;;;;;8.68;2.47;;;15.90;77.70;;;;;;5036307;28;20021;-63
2022/04/09 11:15:22;;;;;;;8.80;2.67;;;14.90;80.90;;;;;;5053733;28;20055;-64
2022/04/09 11:17:48;;;;;;;8.23;2.63;;;14.10;85.30;;;;;;5054267;28;20044;-64
2022/04/09 11:20:26;;;;;;;8.93;2.40;;;13.30;88.60;;;;;;5053998;28;20776;-64
2022/04/09 11:22:54;;;;;;;8.68;2.70;;;12.50;91.40;;;;;;5035922;28;20021;-63
2022/04/09 11:25:24;;;;;;;15.23;2.70;;;12.00;92.20;;;;;;5053958;28;20055;-64
2022/04/09 11:27:51;;;;;;;10.95;3.83;;;11.50;93.10;;;;;;5053915;28;20098;-64
2022/04/09 11:30:17;;;;;;;9.77;2.83;;;11.10;95.10;;;;;;5053972;28;20059;-64
2022/04/09 11:32:45;;;;;;;5.93;2.15;;;11.10;95.70;;;;;;5053914;28;20035;-64
2022/04/09 11:35:11;;;;;;;8.75;2.42;;;10.90;95.00;;;;;;5054166;28;20509;-64
2022/04/09 11:37:44;;;;;;;6.45;2.20;;;10.80;95.00;;;;;;5054355;28;20108;-64
2022/04/09 11:40:11;;;;;;;11.07;2.35;;;10.80;94.30;;;;;;5054111;28;20025;-63
2022/04/09 11:42:49;;;;;;;7.75;1.98;;;10.80;95.30;;;;;;5035703;28;20028;-64
2022/04/09 11:45:26;;;;;;;5.40;1.73;;;11.10;93.80;;;;;;5053752;28;20033;-64
2022/04/09 11:47:53;;;;;;;9.85;2.67;;;11.10;93.90;;;;;;5053935;28;20021;-64
2022/04/09 11:50:20;;;;;;;12.90;2.42;;;11.10;94.50;;;;;;5035156;28;20582;-64
2022/04/09 11:52:46;;;;;;;9.98;2.28;;;11.30;94.10;;;;;;5035258;28;20037;-64
2022/04/09 11:55:14;;;;;;;10.68;3.08;;;11.30;94.20;;;;;;5053154;28;20033;-65
2022/04/09 11:57:48;;;;;;;8.65;2.15;;;11.50;95.00;;;;;;5035983;28;20029;-68
2022/04/09 12:00:13;;;;;;;11.75;2.35;;;11.30;93.80;;;;;;5054207;28;20021;-67
2022/04/09 12:02:39;;;;;;;6.43;1.95;;;11.20;94.70;;;;;;5054143;28;20442;-67
2022/04/09 12:05:10;;;;;;;8.38;2.08;;;10.90;94.20;;;;;;5053473;28;20054;-68
2022/04/09 12:07:40;;;;;;;5.72;1.88;;;10.60;94.50;;;;;;5053158;28;20029;-65
2022/04/09 12:10:06;;;;;;;6.55;2.17;;;10.50;95.80;;;;;;5053855;28;20033;-67
2022/04/09 12:12:38;;;;;;;6.47;1.98;;;10.60;95.00;;;;;;5053125;28;20028;-67
2022/04/09 12:15:04;;;;;;;16.25;2.88;;;10.70;94.60;;;;;;5053288;28;20388;-66
2022/04/09 12:17:34;;;;;;;14.75;4.28;;;10.70;95.00;;;;;;5052861;28;20025;-65
2022/04/09 12:20:20;;;;;;;13.43;5.43;;;10.70;94.60;;;;;;5053022;28;20090;-67
2022/04/09 12:22:55;;;;;;;11.18;4.85;;;10.50;95.10;;;;;;5054089;28;20040;-67
2022/04/09 12:25:38;;;;;;;8.65;2.38;;;10.20;94.80;;;;;;5036453;28;20032;-68
2022/04/09 12:28:05;;;;;;;12.88;3.60;;;10.10;94.70;;;;;;5052358;28;20028;-68
2022/04/09 12:30:41;;;;;;;10.20;2.47;;;10.10;95.60;;;;;;5053675;28;20079;-68
2022/04/09 12:33:11;;;;;;;4.97;1.90;;;10.20;95.30;;;;;;5054037;28;20025;-67
2022/04/09 12:35:36;;;;;;;5.93;1.85;;;10.30;94.70;;;;;;5034822;28;20079;-68
2022/04/09 12:38:02;;;;;;;8.30;2.43;;;10.40;94.60;;;;;;5052654;28;20028;-67
2022/04/09 12:40:29;;;;;;;7.72;2.40;;;10.40;94.50;;;;;;5052425;28;20267;-67
2022/04/09 12:42:56;;;;;;;7.65;1.85;;;10.30;94.50;;;;;;5052961;28;20048;-67
2022/04/09 12:45:24;;;;;;;7.97;2.47;;;10.30;93.60;;;;;;5052993;28;20017;-68
2022/04/09 12:47:55;;;;;;;9.63;2.47;;;10.10;94.00;;;;;;5052542;28;20464;-68